Airport View

Enter AWOS ICAO identifier for current METAR.

ex. KFNL

KANQ 191835Z AUTO 26013G20KT 10SM FEW060 SCT070 M11/M15 A3015 RMK AO2

19 Jan 2020 18:31

Frequency: 118.175

Phone: 260-668-5630

Other Area AWOS: KC62 - KOEB - KIRS - KGWB

TAF KFWA 191731Z 1918/2018 29016G25KT 6SM -SHSN SCT015 OVC025 FM192200 29012KT P6SM SCT020 OVC040 FM200200 35005KT P6SM SCT025 OVC200